Time;durP1;ratioP1;P1;durP2;ratioP2;P2;SDS_P1;SDS_P2;PMS_P1;PMS_P2;Temp;Humidity;BMP_temperature;BMP_pressure;BME280_temperature;BME280_humidity;BME280_pressure;Samples;Min_cycle;Max_cycle;Signal;HPM_P1;HPM_P2
2024/01/13 07:02:13;;;;;;;8.53;4.57;;;3.90;99.90;;;;;;5061603;23;20212;-93
2024/01/13 08:14:37;;;;;;;13.03;4.67;;;3.70;99.90;;;;;;5053564;23;20616;-95
2024/01/13 08:20:13;;;;;;;7.63;2.93;;;3.50;99.90;;;;;;4924635;24;20216;-95
2024/01/13 08:22:32;;;;;;;;;;;;;;;;;;;;;
2024/01/13 08:25:18;;;;;;;5.43;2.93;;;3.50;99.90;;;;;;4926936;24;20258;-95
2024/01/13 08:28:18;;;;;;;15.00;5.43;;;3.50;99.90;;;;;;4910158;24;20159;-96
2024/01/13 08:30:55;;;;;;;9.17;4.00;;;3.40;99.90;;;;;;4932068;24;20190;-95
2024/01/13 08:32:55;;;;;;;6.10;3.20;;;3.50;99.90;;;;;;4879138;24;20521;-94
2024/01/13 08:34:56;;;;;;;11.27;3.97;;;3.40;99.90;;;;;;4973940;23;20152;-95
2024/01/13 08:36:57;;;;;;;10.47;4.43;;;3.40;99.90;;;;;;4952298;24;20172;-94
2024/01/13 08:39:35;;;;;;;10.80;4.80;;;3.50;99.90;;;;;;4952204;24;20157;-94
2024/01/13 08:41:46;;;;;;;12.70;4.17;;;3.40;99.90;;;;;;4974753;23;20171;-95
2024/01/13 08:44:28;;;;;;;12.20;4.97;;;3.40;99.90;;;;;;4976481;23;20160;-93
2024/01/13 08:46:29;;;;;;;14.20;4.73;;;3.40;99.90;;;;;;5000912;23;20194;-94
2024/01/13 08:48:40;;;;;;;15.23;5.40;;;3.50;99.90;;;;;;5026278;23;20582;-95
2024/01/13 08:50:42;;;;;;;8.53;4.57;;;3.60;99.90;;;;;;4998868;23;20161;-96
2024/01/13 08:53:06;;;;;;;10.87;2.93;;;3.70;99.90;;;;;;4999426;23;20238;-95
2024/01/13 08:55:32;;;;;;;;;;;;;;;;;;;;;
2024/01/13 08:57:33;;;;;;;12.47;5.53;;;3.50;99.90;;;;;;5025888;23;20159;-93
2024/01/13 08:59:39;;;;;;;12.33;5.33;;;3.60;99.90;;;;;;5024513;23;20241;-94
2024/01/13 09:01:42;;;;;;;5.53;3.47;;;3.60;99.90;;;;;;4999519;23;20156;-94
2024/01/13 09:03:45;;;;;;;10.03;3.47;;;3.80;99.90;;;;;;5000012;23;20195;-93
2024/01/13 09:05:56;;;;;;;15.60;5.47;;;3.60;99.90;;;;;;4999793;23;20188;-94
2024/01/13 09:07:59;;;;;;;8.50;4.33;;;3.60;99.90;;;;;;4999086;23;20151;-93
2024/01/13 09:10:06;;;;;;;14.47;5.20;;;3.50;99.90;;;;;;5024030;23;20151;-94
2024/01/13 09:12:07;;;;;;;12.10;4.67;;;3.60;99.90;;;;;;5002480;23;20566;-94
2024/01/13 09:14:09;;;;;;;12.47;5.87;;;3.70;99.90;;;;;;5028081;23;20250;-94
2024/01/13 09:16:12;;;;;;;16.47;6.23;;;3.70;99.90;;;;;;5004391;23;20589;-93
2024/01/13 09:18:16;;;;;;;6.23;3.23;;;3.80;99.90;;;;;;5054955;23;20181;-94
2024/01/13 09:20:19;;;;;;;11.97;4.57;;;3.90;99.90;;;;;;5006603;23;20155;-96
2024/01/13 09:22:20;;;;;;;19.37;4.83;;;3.90;99.90;;;;;;5006257;23;20159;-93
2024/01/13 09:24:29;;;;;;;27.23;8.20;;;3.70;99.90;;;;;;5030031;23;20159;-94
2024/01/13 09:26:30;;;;;;;25.07;6.87;;;3.60;99.90;;;;;;5004440;23;20195;-94
2024/01/13 09:28:33;;;;;;;25.27;9.23;;;3.60;99.90;;;;;;5007160;23;20641;-96
2024/01/13 09:30:53;;;;;;;12.40;5.37;;;3.70;99.90;;;;;;5005761;23;20156;-95
2024/01/13 09:33:04;;;;;;;15.20;3.90;;;3.60;99.90;;;;;;5007211;23;20175;-94
2024/01/13 09:35:05;;;;;;;9.73;4.83;;;3.50;99.90;;;;;;5006262;23;20191;-96
2024/01/13 09:37:06;;;;;;;16.47;5.77;;;3.60;99.90;;;;;;5004982;23;20183;-96
2024/01/13 09:39:11;;;;;;;13.23;5.37;;;3.70;99.90;;;;;;5035958;23;20688;-95
2024/01/13 09:41:11;;;;;;;17.00;6.07;;;3.80;99.90;;;;;;5041093;23;20143;-96
2024/01/13 09:43:23;;;;;;;18.70;6.37;;;3.80;99.90;;;;;;5016084;23;20164;-96
2024/01/13 09:45:28;;;;;;;11.13;5.27;;;4.00;99.90;;;;;;5039205;23;20198;-94
2024/01/13 09:47:43;;;;;;;10.53;4.33;;;4.10;99.90;;;;;;5014728;23;20151;-95
2024/01/13 09:49:52;;;;;;;12.50;5.27;;;4.10;99.90;;;;;;5011772;23;20211;-95
2024/01/13 09:52:06;;;;;;;8.80;4.43;;;4.00;99.90;;;;;;5012860;23;20151;-95
2024/01/13 09:54:37;;;;;;;8.93;5.23;;;4.10;99.90;;;;;;5014199;23;20159;-96
2024/01/13 10:00:14;;;;;;;14.43;4.90;;;3.80;99.90;;;;;;5060071;23;20232;-92
2024/01/13 10:02:27;;;;;;;12.00;5.70;;;3.70;99.90;;;;;;5062933;23;20186;-95
2024/01/13 10:04:31;;;;;;;12.87;5.77;;;3.80;99.90;;;;;;5040683;23;20186;-96
2024/01/13 10:06:33;;;;;;;14.03;4.43;;;3.80;99.90;;;;;;5064390;23;20201;-95
2024/01/13 10:08:34;;;;;;;10.90;4.30;;;3.70;99.90;;;;;;5037608;23;20155;-95
2024/01/13 10:10:37;;;;;;;16.37;6.57;;;3.80;99.90;;;;;;5027979;23;20165;-96
2024/01/13 10:12:40;;;;;;;14.00;6.07;;;3.80;99.90;;;;;;5026907;23;20210;-95
2024/01/13 10:14:44;;;;;;;15.90;5.67;;;3.80;99.90;;;;;;5026557;23;20171;-94
2024/01/13 10:17:00;;;;;;;16.47;6.37;;;3.90;99.90;;;;;;5028117;23;20178;-96
2024/01/13 10:19:10;;;;;;;11.73;5.13;;;3.80;99.90;;;;;;5035112;23;20660;-95
2024/01/13 10:21:13;;;;;;;13.87;5.17;;;4.00;99.90;;;;;;5027648;23;20605;-96
2024/01/13 10:23:28;;;;;;;11.60;4.70;;;4.00;99.90;;;;;;5026052;23;20162;-95
2024/01/13 10:25:29;;;;;;;10.13;4.73;;;3.90;99.90;;;;;;5024397;23;20202;-95
2024/01/13 10:27:30;;;;;;;11.17;4.93;;;3.90;99.90;;;;;;5026246;23;20155;-95
2024/01/13 10:29:32;;;;;;;14.70;5.73;;;3.90;99.90;;;;;;5050254;23;20150;-96
2024/01/13 10:31:46;;;;;;;10.30;5.27;;;4.00;99.90;;;;;;5052477;23;20150;-95
2024/01/13 10:33:48;;;;;;;9.23;4.27;;;4.10;99.90;;;;;;5024899;23;20166;-96
2024/01/13 10:35:52;;;;;;;11.87;4.43;;;4.00;99.90;;;;;;5028164;23;20171;-94
2024/01/13 10:37:57;;;;;;;9.07;4.60;;;4.00;99.90;;;;;;5026084;23;20170;-96
2024/01/13 10:40:06;;;;;;;11.57;4.33;;;4.00;99.90;;;;;;5053271;23;20153;-96
2024/01/13 10:42:19;;;;;;;9.80;4.63;;;4.10;99.90;;;;;;5025731;23;20155;-96
2024/01/13 10:44:29;;;;;;;12.83;4.97;;;4.20;99.90;;;;;;5028706;23;20154;-93
2024/01/13 10:46:36;;;;;;;17.63;6.57;;;4.20;99.90;;;;;;5037223;23;20182;-93
2024/01/13 10:48:47;;;;;;;15.90;4.33;;;4.10;99.90;;;;;;5060605;23;20157;-92
2024/01/13 10:50:51;;;;;;;19.80;7.33;;;4.00;99.90;;;;;;5040588;23;20150;-94
2024/01/13 10:53:23;;;;;;;36.77;10.23;;;4.00;99.90;;;;;;5038227;23;20238;-92
2024/01/13 10:55:26;;;;;;;9.03;4.90;;;4.10;99.90;;;;;;5037175;23;20175;-92
2024/01/13 10:57:31;;;;;;;12.23;5.73;;;4.00;99.90;;;;;;5040459;23;20131;-92
2024/01/13 10:59:36;;;;;;;13.00;5.63;;;4.10;99.90;;;;;;5038988;23;20151;-92
2024/01/13 11:01:39;;;;;;;9.63;4.10;;;4.00;99.90;;;;;;5065328;23;20182;-92
2024/01/13 11:03:41;;;;;;;9.00;4.17;;;3.90;99.90;;;;;;5054718;23;20222;-92
2024/01/13 11:06:07;;;;;;;17.80;5.13;;;3.80;99.90;;;;;;5087746;23;20177;-92
2024/01/13 11:08:36;;;;;;;30.33;11.53;;;3.90;99.90;;;;;;5087202;23;20221;-92
2024/01/13 11:10:57;;;;;;;11.43;5.67;;;3.80;99.90;;;;;;5087158;23;20292;-92
2024/01/13 11:13:12;;;;;;;14.80;6.73;;;4.00;99.90;;;;;;5088892;23;20217;-93
2024/01/13 11:15:38;;;;;;;14.73;6.27;;;4.20;99.90;;;;;;5061706;23;20271;-92
2024/01/13 11:17:40;;;;;;;12.63;6.27;;;4.10;99.90;;;;;;5087345;23;20227;-93
2024/01/13 11:19:41;;;;;;;9.03;4.97;;;4.20;99.90;;;;;;5065131;23;20186;-91
2024/01/13 11:21:52;;;;;;;8.33;3.80;;;4.30;99.90;;;;;;5087494;23;20158;-92
2024/01/13 11:23:53;;;;;;;9.27;4.63;;;4.00;99.90;;;;;;5064824;23;20157;-91
2024/01/13 11:25:54;;;;;;;15.43;5.63;;;4.00;99.90;;;;;;5063918;23;20253;-92
2024/01/13 11:28:06;;;;;;;14.70;5.27;;;4.10;99.90;;;;;;5086125;23;20150;-92
2024/01/13 11:30:13;;;;;;;6.23;3.80;;;4.10;99.90;;;;;;5062244;23;20142;-91
2024/01/13 11:32:14;;;;;;;14.13;5.50;;;4.10;99.90;;;;;;5063608;23;20146;-91
2024/01/13 11:34:17;;;;;;;10.10;4.63;;;4.20;99.90;;;;;;5061716;23;20633;-91
2024/01/13 11:36:18;;;;;;;17.87;5.33;;;4.00;99.90;;;;;;5062427;23;20186;-91
2024/01/13 11:38:19;;;;;;;10.27;4.97;;;4.00;99.90;;;;;;5056563;23;20158;-92
2024/01/13 11:40:21;;;;;;;10.50;4.73;;;4.00;99.90;;;;;;5058288;23;20155;-93
2024/01/13 11:42:24;;;;;;;7.87;5.07;;;4.00;99.90;;;;;;5057242;23;20242;-91
2024/01/13 11:44:35;;;;;;;15.90;6.23;;;3.80;99.90;;;;;;5048053;23;20207;-91
2024/01/13 11:46:39;;;;;;;13.93;6.03;;;3.70;99.90;;;;;;5069394;23;20221;-92
2024/01/13 11:48:41;;;;;;;14.30;7.47;;;3.80;99.90;;;;;;5070449;23;20154;-91
2024/01/13 11:51:08;;;;;;;14.20;6.40;;;3.70;99.90;;;;;;5045438;23;20165;-91
2024/01/13 11:53:36;;;;;;;11.97;5.67;;;3.80;99.90;;;;;;5069962;23;20470;-91
2024/01/13 11:55:37;;;;;;;15.90;5.73;;;3.90;99.90;;;;;;5045773;23;20190;-92
2024/01/13 11:57:52;;;;;;;10.50;4.73;;;4.10;99.90;;;;;;5070473;23;20189;-94
2024/01/13 11:59:55;;;;;;;15.00;5.27;;;4.10;99.90;;;;;;5070295;23;20153;-94
2024/01/13 12:01:59;;;;;;;18.37;6.67;;;4.00;99.90;;;;;;5045597;23;20182;-95
2024/01/13 12:04:00;;;;;;;12.77;5.60;;;3.90;99.90;;;;;;5069895;23;20601;-96
2024/01/13 12:06:03;;;;;;;14.37;6.73;;;3.80;99.90;;;;;;5045992;23;20253;-95
2024/01/13 12:08:15;;;;;;;12.83;5.13;;;3.80;99.90;;;;;;5046133;23;20154;-93
2024/01/13 12:10:19;;;;;;;9.63;5.20;;;4.00;99.90;;;;;;5071749;23;20205;-94
2024/01/13 12:12:19;;;;;;;13.20;6.50;;;3.90;99.90;;;;;;5045915;23;20158;-96
2024/01/13 12:14:28;;;;;;;14.03;5.07;;;3.90;99.90;;;;;;5069526;23;20154;-95
2024/01/13 12:16:32;;;;;;;19.43;7.37;;;3.80;99.90;;;;;;5045002;23;20343;-95
2024/01/13 12:18:45;;;;;;;19.03;5.37;;;3.60;99.90;;;;;;5047435;23;20184;-93
2024/01/13 12:20:47;;;;;;;10.00;5.50;;;3.50;99.90;;;;;;5047672;23;20161;-94
2024/01/13 12:22:50;;;;;;;14.93;6.87;;;3.70;99.90;;;;;;5071361;23;20146;-94
2024/01/13 12:24:53;;;;;;;16.03;5.57;;;3.60;99.90;;;;;;5045985;23;20158;-95
2024/01/13 12:26:57;;;;;;;19.87;5.07;;;3.70;99.90;;;;;;5045377;23;20186;-96
2024/01/13 12:29:01;;;;;;;12.73;5.33;;;3.70;99.90;;;;;;5045861;23;20165;-95
2024/01/13 12:31:07;;;;;;;10.33;5.00;;;3.60;99.90;;;;;;5044572;23;20169;-93
2024/01/13 12:33:09;;;;;;;11.73;4.70;;;3.60;99.90;;;;;;5045752;23;20162;-94
2024/01/13 12:35:14;;;;;;;8.17;4.03;;;3.50;99.90;;;;;;5069249;23;20186;-94
2024/01/13 12:37:15;;;;;;;10.23;3.93;;;3.40;99.90;;;;;;5044963;23;20209;-94
2024/01/13 12:39:19;;;;;;;11.40;5.40;;;3.50;99.90;;;;;;5045239;23;20154;-94
2024/01/13 12:41:19;;;;;;;11.97;5.57;;;3.50;99.90;;;;;;5045333;23;20162;-95
2024/01/13 12:43:29;;;;;;;17.47;6.30;;;3.50;99.90;;;;;;5045462;23;20581;-92
2024/01/13 12:45:44;;;;;;;17.57;7.00;;;3.70;99.90;;;;;;5044853;23;20197;-92
2024/01/13 12:47:56;;;;;;;10.83;6.20;;;3.70;99.90;;;;;;5046286;23;20212;-93
2024/01/13 12:50:08;;;;;;;18.70;4.73;;;3.60;99.90;;;;;;5045059;23;20150;-94
2024/01/13 12:52:09;;;;;;;15.03;6.43;;;3.60;99.90;;;;;;5045554;23;20469;-93
2024/01/13 12:54:21;;;;;;;15.57;5.47;;;3.80;99.90;;;;;;5071193;23;20192;-96
2024/01/13 12:56:22;;;;;;;18.73;6.00;;;3.70;99.90;;;;;;5069110;23;20178;-93
2024/01/13 12:58:22;;;;;;;16.97;7.00;;;3.60;99.90;;;;;;5044839;23;20158;-93
2024/01/13 13:00:29;;;;;;;13.43;6.30;;;3.80;99.90;;;;;;5045559;23;20222;-93
2024/01/13 13:02:30;;;;;;;14.33;5.00;;;3.90;99.90;;;;;;5045321;23;20627;-93
2024/01/13 13:04:30;;;;;;;16.03;7.33;;;4.00;99.90;;;;;;5069544;23;20165;-93
2024/01/13 13:06:34;;;;;;;17.87;6.97;;;3.90;99.90;;;;;;5045291;23;20284;-94
2024/01/13 13:08:35;;;;;;;26.93;9.03;;;4.00;99.90;;;;;;5045365;23;20537;-93
2024/01/13 13:10:56;;;;;;;12.63;6.17;;;3.90;99.90;;;;;;5046041;23;20931;-95
2024/01/13 13:13:06;;;;;;;15.83;6.53;;;3.80;99.90;;;;;;5045112;23;20672;-94
2024/01/13 13:15:07;;;;;;;18.03;6.53;;;3.90;99.90;;;;;;5045115;23;20174;-93
2024/01/13 13:17:08;;;;;;;24.03;7.40;;;3.90;99.90;;;;;;5045007;23;20158;-91
2024/01/13 13:19:16;;;;;;;16.73;7.23;;;3.80;99.90;;;;;;5093765;23;20219;-93
2024/01/13 13:21:25;;;;;;;26.03;8.30;;;3.70;99.90;;;;;;5046492;23;20150;-95
2024/01/13 13:23:26;;;;;;;13.63;5.43;;;3.60;99.90;;;;;;5045578;23;20246;-92
2024/01/13 13:25:27;;;;;;;12.07;5.43;;;3.50;99.90;;;;;;5068676;23;20270;-89
2024/01/13 13:27:28;;;;;;;15.63;6.13;;;3.40;99.90;;;;;;5044992;23;20166;-89
2024/01/13 13:29:28;;;;;;;21.97;7.93;;;3.50;99.90;;;;;;5045430;23;20214;-90
2024/01/13 13:31:29;;;;;;;14.23;7.07;;;3.60;99.90;;;;;;5045273;23;20245;-89
2024/01/13 13:33:31;;;;;;;15.80;6.30;;;3.80;99.90;;;;;;5045134;23;20146;-89
2024/01/13 13:35:32;;;;;;;20.07;8.10;;;3.90;99.90;;;;;;5068728;23;20172;-90
2024/01/13 13:37:33;;;;;;;18.73;6.80;;;3.90;99.90;;;;;;5045182;23;20478;-90
2024/01/13 13:39:36;;;;;;;16.03;6.13;;;3.80;99.90;;;;;;5044979;23;20613;-90
2024/01/13 13:41:36;;;;;;;17.70;6.60;;;3.60;99.90;;;;;;5044883;23;20154;-90
2024/01/13 13:43:39;;;;;;;16.77;6.80;;;3.70;99.90;;;;;;5045253;23;20573;-93
2024/01/13 13:45:46;;;;;;;12.73;5.07;;;3.70;99.90;;;;;;5069667;23;20212;-95
2024/01/13 13:48:10;;;;;;;16.10;6.80;;;3.60;99.90;;;;;;5050226;23;20155;-95
2024/01/13 13:50:14;;;;;;;24.37;7.63;;;3.60;99.90;;;;;;5045769;23;20229;-94
2024/01/13 13:52:20;;;;;;;16.87;6.13;;;3.60;99.90;;;;;;5045663;23;20158;-95
2024/01/13 13:54:38;;;;;;;12.47;6.13;;;3.60;99.90;;;;;;5071783;23;20152;-93
2024/01/13 13:56:48;;;;;;;20.20;8.00;;;3.60;99.90;;;;;;5069513;23;20505;-93
2024/01/13 13:58:51;;;;;;;17.37;6.50;;;3.60;99.90;;;;;;5046191;23;20150;-93
2024/01/13 14:00:54;;;;;;;28.93;6.87;;;3.50;99.90;;;;;;5045241;23;20154;-92
2024/01/13 14:02:56;;;;;;;14.80;6.63;;;3.60;99.90;;;;;;5070886;23;20473;-93
2024/01/13 14:04:57;;;;;;;14.73;6.30;;;3.70;99.90;;;;;;5047699;23;20171;-93
2024/01/13 14:06:58;;;;;;;15.23;6.47;;;3.60;99.90;;;;;;5022816;23;20281;-93
2024/01/13 14:08:59;;;;;;;16.37;6.23;;;3.60;99.90;;;;;;5047472;23;20199;-94
2024/01/13 14:11:08;;;;;;;11.53;5.80;;;3.60;99.90;;;;;;5046765;23;20165;-94
2024/01/13 14:13:09;;;;;;;14.43;6.90;;;3.70;99.90;;;;;;5022629;23;20221;-92
2024/01/13 14:15:11;;;;;;;14.70;6.37;;;3.60;99.90;;;;;;5023268;23;20190;-94
2024/01/13 14:17:16;;;;;;;15.20;6.23;;;3.50;99.90;;;;;;5024153;23;20220;-95
2024/01/13 14:19:17;;;;;;;25.13;6.70;;;3.40;99.90;;;;;;5047210;23;20557;-94
2024/01/13 14:21:19;;;;;;;11.83;5.47;;;3.40;99.90;;;;;;5024019;23;20178;-92
2024/01/13 14:23:22;;;;;;;14.63;6.57;;;3.50;99.90;;;;;;5025104;23;20155;-93
2024/01/13 14:25:29;;;;;;;21.13;6.87;;;3.40;99.90;;;;;;5025437;23;20195;-96
2024/01/13 14:27:36;;;;;;;23.57;6.13;;;3.40;99.90;;;;;;5072120;23;20240;-95
2024/01/13 14:29:47;;;;;;;24.83;5.77;;;3.50;99.90;;;;;;5023328;23;20155;-96
2024/01/13 14:31:51;;;;;;;17.43;7.13;;;3.50;99.90;;;;;;5047882;23;20166;-94
2024/01/13 14:33:59;;;;;;;17.83;5.77;;;3.50;99.90;;;;;;5024179;23;20505;-93
2024/01/13 14:36:15;;;;;;;9.33;5.10;;;3.60;99.90;;;;;;5023037;23;20178;-96
2024/01/13 14:38:16;;;;;;;14.43;6.67;;;3.60;99.90;;;;;;5025185;23;20154;-95
2024/01/13 14:40:22;;;;;;;21.53;6.87;;;3.60;99.90;;;;;;5070911;23;20226;-94
2024/01/13 14:42:41;;;;;;;13.87;6.50;;;3.50;99.90;;;;;;5046321;23;20249;-95
2024/01/13 14:44:49;;;;;;;13.30;5.67;;;3.50;99.90;;;;;;5071308;23;20164;-95
2024/01/13 14:47:05;;;;;;;;;;;;;;;;;;;;;
2024/01/13 14:49:06;;;;;;;13.87;4.87;;;3.50;99.90;;;;;;5047524;23;20237;-96
2024/01/13 14:51:08;;;;;;;19.60;7.00;;;3.30;99.90;;;;;;5047347;23;20493;-93
2024/01/13 14:53:12;;;;;;;13.97;4.43;;;3.20;99.90;;;;;;5046681;23;20568;-93
2024/01/13 14:55:14;;;;;;;19.27;7.93;;;3.20;99.90;;;;;;5046571;23;20182;-93
2024/01/13 14:57:16;;;;;;;12.17;5.07;;;3.10;99.90;;;;;;5047312;23;20162;-94
2024/01/13 14:59:19;;;;;;;14.60;6.67;;;3.00;99.90;;;;;;5046728;23;20161;-94
2024/01/13 15:01:23;;;;;;;24.73;7.00;;;3.10;99.90;;;;;;5022881;23;20182;-94
2024/01/13 15:03:29;;;;;;;19.40;6.17;;;3.20;99.90;;;;;;5023097;23;20161;-95
2024/01/13 15:05:39;;;;;;;18.57;5.77;;;3.30;99.90;;;;;;5046507;23;20193;-93
2024/01/13 15:07:43;;;;;;;17.03;6.10;;;3.10;99.90;;;;;;5024013;23;20155;-93
2024/01/13 15:09:44;;;;;;;25.83;7.70;;;3.10;99.90;;;;;;5023071;23;20151;-94
2024/01/13 15:11:50;;;;;;;30.07;10.57;;;3.10;99.90;;;;;;5023496;23;20151;-95
2024/01/13 15:13:58;;;;;;;20.43;7.57;;;3.20;99.90;;;;;;5051721;23;20151;-93
2024/01/13 15:16:06;;;;;;;33.70;9.67;;;3.10;99.90;;;;;;5052135;23;20214;-94
2024/01/13 15:18:10;;;;;;;19.47;6.87;;;3.10;99.90;;;;;;5056223;23;20141;-94
2024/01/13 15:20:44;;;;;;;17.63;6.37;;;3.20;99.90;;;;;;5054668;23;20158;-95
2024/01/13 15:22:59;;;;;;;15.10;6.67;;;3.00;99.90;;;;;;5026947;23;20594;-94
2024/01/13 15:24:59;;;;;;;23.53;10.27;;;3.10;99.90;;;;;;5047257;23;20229;-92
2024/01/13 15:27:01;;;;;;;20.13;8.70;;;3.10;99.90;;;;;;5048011;23;20724;-92
2024/01/13 15:29:08;;;;;;;21.57;6.83;;;3.20;99.90;;;;;;5047031;23;20161;-94
2024/01/13 15:31:12;;;;;;;15.67;5.80;;;3.00;99.90;;;;;;5024798;23;20227;-95
2024/01/13 15:33:13;;;;;;;16.03;6.13;;;2.90;99.90;;;;;;5053606;23;20185;-93
2024/01/13 15:36:09;;;;;;;17.43;7.77;;;2.90;99.90;;;;;;5048939;23;20249;-95
2024/01/13 15:41:34;;;;;;;8.10;4.87;;;2.90;99.90;;;;;;4963965;23;20195;-89
2024/01/13 15:43:34;;;;;;;6.83;3.63;;;2.70;99.90;;;;;;5024764;23;20163;-87
2024/01/13 15:45:35;;;;;;;14.43;5.87;;;2.40;99.90;;;;;;5022460;23;20242;-89
2024/01/13 15:47:37;;;;;;;10.67;4.57;;;2.30;99.90;;;;;;5070742;23;20157;-88
2024/01/13 15:49:37;;;;;;;23.77;6.27;;;2.30;99.90;;;;;;5021707;23;20218;-88
2024/01/13 15:51:39;;;;;;;27.63;6.23;;;2.30;99.90;;;;;;5047256;23;20154;-96
2024/01/13 15:53:40;;;;;;;18.63;5.53;;;2.40;99.90;;;;;;5045724;23;20150;-89
2024/01/13 15:55:41;;;;;;;15.97;6.33;;;2.40;99.90;;;;;;5022164;23;20171;-92
2024/01/13 15:57:41;;;;;;;17.33;6.27;;;2.20;99.90;;;;;;5070343;23;20584;-91
2024/01/13 15:59:42;;;;;;;16.30;6.73;;;2.30;99.90;;;;;;5045466;23;20170;-90
2024/01/13 16:01:43;;;;;;;14.03;5.63;;;2.30;99.90;;;;;;5022578;23;20238;-90
2024/01/13 16:03:44;;;;;;;17.90;8.90;;;2.30;99.90;;;;;;5021269;23;20243;-90
2024/01/13 16:05:44;;;;;;;14.20;6.10;;;2.50;99.90;;;;;;5021484;23;20206;-90
2024/01/13 16:07:47;;;;;;;13.40;6.17;;;2.50;99.90;;;;;;5045726;23;20146;-89
2024/01/13 16:09:48;;;;;;;15.57;7.20;;;2.40;99.90;;;;;;5045766;23;20542;-89
2024/01/13 16:11:48;;;;;;;18.40;7.07;;;2.20;99.90;;;;;;5022220;23;20155;-90
2024/01/13 16:13:58;;;;;;;19.90;7.10;;;2.30;99.90;;;;;;5045930;23;20154;-90
2024/01/13 16:15:59;;;;;;;23.07;6.47;;;2.40;99.90;;;;;;5045525;23;20173;-90
2024/01/13 16:18:00;;;;;;;8.80;3.27;;;2.30;99.90;;;;;;5046173;23;20150;-90
2024/01/13 16:20:02;;;;;;;19.93;6.97;;;2.40;99.90;;;;;;5022081;23;20151;-91
2024/01/13 16:22:03;;;;;;;19.63;8.43;;;2.30;99.90;;;;;;5021863;23;20182;-92
2024/01/13 16:24:09;;;;;;;9.37;4.47;;;2.20;99.90;;;;;;5022965;23;20538;-93
2024/01/13 16:26:10;;;;;;;7.60;3.53;;;2.30;99.90;;;;;;5046227;23;20194;-89
2024/01/13 16:28:11;;;;;;;23.03;5.77;;;2.30;99.90;;;;;;5021542;23;20155;-91
2024/01/13 16:30:12;;;;;;;17.10;6.63;;;2.20;99.90;;;;;;5021409;23;20194;-90
2024/01/13 16:32:13;;;;;;;24.60;6.33;;;2.20;99.90;;;;;;5021304;23;20191;-88
2024/01/13 16:34:14;;;;;;;24.57;7.87;;;2.40;99.90;;;;;;5045172;23;20154;-89
2024/01/13 16:36:15;;;;;;;14.57;5.90;;;2.40;99.90;;;;;;5021158;23;20657;-89
2024/01/13 16:38:15;;;;;;;12.50;6.23;;;2.30;99.90;;;;;;5021377;23;20155;-92
2024/01/13 16:40:19;;;;;;;18.67;6.47;;;2.30;99.90;;;;;;5045179;23;20166;-89
2024/01/13 16:42:20;;;;;;;13.83;5.90;;;2.20;99.90;;;;;;5021598;23;20162;-90
2024/01/13 16:44:21;;;;;;;19.17;6.30;;;2.30;99.90;;;;;;5045885;23;20158;-89
2024/01/13 16:46:23;;;;;;;19.83;6.50;;;2.20;99.90;;;;;;5021614;23;20246;-94
2024/01/13 16:48:24;;;;;;;19.60;6.53;;;2.10;99.90;;;;;;5045100;23;20157;-90
2024/01/13 16:50:25;;;;;;;11.83;5.77;;;2.20;99.90;;;;;;5046130;23;20158;-91
2024/01/13 16:52:25;;;;;;;25.50;10.73;;;2.10;99.90;;;;;;5045234;23;20153;-94
2024/01/13 16:54:26;;;;;;;17.93;6.37;;;2.20;99.90;;;;;;5021507;23;20183;-92
2024/01/13 16:56:27;;;;;;;11.60;5.47;;;2.30;99.90;;;;;;5044993;23;20178;-93
2024/01/13 16:58:28;;;;;;;12.77;4.73;;;2.40;99.90;;;;;;5021286;23;20151;-89
2024/01/13 17:00:28;;;;;;;14.47;7.17;;;2.30;99.90;;;;;;5021294;23;20514;-88
2024/01/13 17:02:30;;;;;;;17.13;6.13;;;2.10;99.90;;;;;;5021300;23;20155;-90
2024/01/13 17:04:31;;;;;;;13.10;5.70;;;2.30;99.90;;;;;;5033144;23;20221;-93
2024/01/13 17:06:32;;;;;;;27.47;5.80;;;2.30;99.90;;;;;;5044706;23;20194;-92
2024/01/13 17:08:33;;;;;;;26.63;7.00;;;2.40;99.90;;;;;;5020922;23;20488;-89
2024/01/13 17:10:33;;;;;;;13.37;5.60;;;2.40;99.90;;;;;;5020229;23;20150;-89
2024/01/13 17:12:34;;;;;;;15.70;6.83;;;2.60;99.90;;;;;;5045201;23;20161;-93
2024/01/13 17:14:35;;;;;;;19.07;7.43;;;2.60;99.90;;;;;;5021310;23;20155;-94
2024/01/13 17:16:37;;;;;;;17.07;6.50;;;2.60;99.90;;;;;;5021264;23;20253;-90
2024/01/13 17:18:38;;;;;;;29.63;6.33;;;2.80;99.90;;;;;;5045183;23;20162;-91
2024/01/13 17:20:38;;;;;;;24.57;6.80;;;2.50;99.90;;;;;;5044951;23;20150;-90
2024/01/13 17:22:40;;;;;;;19.73;7.53;;;2.70;99.90;;;;;;5045143;23;20172;-90
2024/01/13 17:24:41;;;;;;;20.73;8.07;;;2.60;99.90;;;;;;5045109;23;20158;-89
2024/01/13 17:26:42;;;;;;;14.57;6.50;;;2.70;99.90;;;;;;5044849;23;20228;-90
2024/01/13 17:28:42;;;;;;;23.27;6.07;;;2.70;99.90;;;;;;5045044;23;20593;-89
2024/01/13 17:30:44;;;;;;;14.13;5.67;;;2.60;99.90;;;;;;5021160;23;20242;-89
2024/01/13 17:32:46;;;;;;;17.47;6.53;;;2.60;99.90;;;;;;5045090;23;20150;-92
2024/01/13 17:34:47;;;;;;;17.07;5.27;;;2.50;99.90;;;;;;5021369;23;20151;-88
2024/01/13 17:36:48;;;;;;;18.43;5.53;;;2.40;99.90;;;;;;5045341;23;20228;-89
2024/01/13 17:38:49;;;;;;;25.50;8.00;;;2.40;99.90;;;;;;5022615;23;20214;-89
2024/01/13 17:40:50;;;;;;;16.93;5.93;;;2.40;99.90;;;;;;5022801;23;20151;-92
2024/01/13 17:42:51;;;;;;;22.70;7.03;;;2.50;99.90;;;;;;5022493;23;20158;-90
2024/01/13 17:44:56;;;;;;;14.77;6.50;;;2.50;99.90;;;;;;5070478;23;20146;-90
2024/01/13 17:46:57;;;;;;;16.43;4.90;;;2.50;99.90;;;;;;5022612;23;20186;-89
2024/01/13 17:48:57;;;;;;;20.43;6.57;;;2.50;99.90;;;;;;5046820;23;20150;-89
2024/01/13 17:50:58;;;;;;;16.57;6.50;;;2.40;99.90;;;;;;5022747;23;20157;-93
2024/01/13 17:52:59;;;;;;;17.80;7.17;;;2.40;99.90;;;;;;5046409;23;20177;-91
2024/01/13 17:55:00;;;;;;;13.63;5.63;;;2.60;99.90;;;;;;5022567;23;20169;-89
2024/01/13 17:57:01;;;;;;;13.90;5.67;;;2.60;99.90;;;;;;5046184;23;20154;-90
2024/01/13 17:59:02;;;;;;;25.20;8.23;;;2.60;99.90;;;;;;5022400;23;20198;-93
2024/01/13 18:01:04;;;;;;;10.37;4.80;;;2.40;99.90;;;;;;5070527;23;20176;-94
2024/01/13 18:03:04;;;;;;;19.03;6.10;;;2.50;99.90;;;;;;5022632;23;20589;-92
2024/01/13 18:05:09;;;;;;;25.90;7.37;;;2.40;99.90;;;;;;5046489;23;20189;-90
2024/01/13 18:07:13;;;;;;;20.37;6.90;;;2.30;99.90;;;;;;5046592;23;20258;-90
2024/01/13 18:09:14;;;;;;;12.60;6.03;;;2.30;99.90;;;;;;5022234;23;20605;-90
2024/01/13 18:11:15;;;;;;;13.30;5.77;;;2.30;99.90;;;;;;5046266;23;20157;-90
2024/01/13 18:13:15;;;;;;;15.80;6.87;;;2.10;99.90;;;;;;5022391;23;20163;-91
2024/01/13 18:15:17;;;;;;;21.63;7.27;;;2.10;99.90;;;;;;5022271;23;20171;-88
2024/01/13 18:17:18;;;;;;;8.40;5.00;;;2.10;99.90;;;;;;5046505;23;20225;-92
2024/01/13 18:19:19;;;;;;;17.00;7.00;;;2.00;99.90;;;;;;5022479;23;20150;-88
2024/01/13 18:21:20;;;;;;;14.63;6.70;;;2.00;99.90;;;;;;5046903;23;20154;-89
2024/01/13 18:23:20;;;;;;;21.53;6.40;;;2.10;99.90;;;;;;5022537;23;20302;-90
2024/01/13 18:25:24;;;;;;;19.40;7.47;;;2.20;99.90;;;;;;5046013;23;20177;-94
2024/01/13 18:27:25;;;;;;;15.73;6.67;;;2.30;99.90;;;;;;5046347;23;20154;-92
2024/01/13 18:29:25;;;;;;;22.33;6.20;;;2.30;99.90;;;;;;5022274;23;20200;-89
2024/01/13 18:31:26;;;;;;;29.00;6.43;;;2.20;99.90;;;;;;5022357;23;20151;-88
2024/01/13 18:33:27;;;;;;;24.70;7.37;;;2.30;99.90;;;;;;5022044;23;20147;-93
2024/01/13 18:35:28;;;;;;;27.23;6.63;;;2.30;99.90;;;;;;5022416;23;20594;-92
2024/01/13 18:37:29;;;;;;;20.33;4.93;;;2.40;99.90;;;;;;5022184;23;20186;-94
2024/01/13 18:39:30;;;;;;;21.30;6.30;;;2.40;99.90;;;;;;5022504;23;20158;-92
2024/01/13 18:41:31;;;;;;;15.80;6.83;;;2.40;99.90;;;;;;5022187;23;20159;-90
2024/01/13 18:43:32;;;;;;;14.40;5.97;;;2.30;99.90;;;;;;5045895;23;20181;-89
2024/01/13 18:45:33;;;;;;;30.97;7.87;;;2.30;99.90;;;;;;5021737;23;20216;-89
2024/01/13 18:47:34;;;;;;;17.87;6.67;;;2.30;99.90;;;;;;5045859;23;20154;-89
2024/01/13 18:49:34;;;;;;;13.17;6.33;;;2.40;99.90;;;;;;5021750;23;20227;-89
2024/01/13 18:51:35;;;;;;;18.17;6.47;;;2.20;99.90;;;;;;5046114;23;20158;-88
2024/01/13 18:53:36;;;;;;;10.23;5.27;;;2.10;99.90;;;;;;5046086;23;20157;-88
2024/01/13 18:55:37;;;;;;;11.97;4.03;;;2.00;99.90;;;;;;5022112;23;20178;-89
2024/01/13 18:57:38;;;;;;;12.83;5.57;;;1.90;99.90;;;;;;5022372;23;20341;-89
2024/01/13 18:59:39;;;;;;;19.93;7.13;;;1.90;99.90;;;;;;5022426;23;20482;-88
2024/01/13 19:01:41;;;;;;;23.13;7.43;;;1.90;99.90;;;;;;5070253;23;20164;-89
2024/01/13 19:03:43;;;;;;;14.10;5.87;;;1.80;99.90;;;;;;5045813;23;20174;-93
2024/01/13 19:05:44;;;;;;;21.30;6.70;;;1.90;99.90;;;;;;5022144;23;20273;-89
2024/01/13 19:07:45;;;;;;;20.37;7.27;;;1.90;99.90;;;;;;5045831;23;20158;-92
2024/01/13 19:09:48;;;;;;;11.87;4.77;;;1.80;99.90;;;;;;5022255;23;20510;-88
2024/01/13 19:11:49;;;;;;;13.37;5.60;;;1.80;99.90;;;;;;5046161;23;20151;-89
2024/01/13 19:13:52;;;;;;;24.77;7.37;;;1.70;99.90;;;;;;5022252;23;20271;-89
2024/01/13 19:15:52;;;;;;;28.33;7.57;;;1.80;99.90;;;;;;5045587;23;20175;-88
2024/01/13 19:17:54;;;;;;;16.83;7.07;;;1.80;99.90;;;;;;5021965;23;20167;-90